Time;durP1;ratioP1;P1;durP2;ratioP2;P2;SDS_P1;SDS_P2;PMS_P1;PMS_P2;Temp;Humidity;BMP_temperature;BMP_pressure;BME280_temperature;BME280_humidity;BME280_pressure;Samples;Min_cycle;Max_cycle;Signal;HPM_P1;HPM_P2
2021/10/18 00:00:45;;;;;;;17.17;8.43;;;;;;;6.57;60.67;100621.56;1768853;80;21415;-68
2021/10/18 00:03:11;;;;;;;12.65;7.60;;;;;;;6.56;60.60;100612.00;1762074;80;21016;-69
2021/10/18 00:05:38;;;;;;;16.45;8.70;;;;;;;6.54;60.57;100616.94;1747962;81;20948;-68
2021/10/18 00:08:07;;;;;;;16.50;8.78;;;;;;;6.50;60.58;100610.20;1749356;81;21847;-68
2021/10/18 00:10:33;;;;;;;13.28;8.23;;;;;;;6.47;60.58;100611.23;1753405;81;20996;-69
2021/10/18 00:13:00;;;;;;;15.10;8.80;;;;;;;6.47;60.54;100615.64;1755837;81;21506;-68
2021/10/18 00:15:28;;;;;;;14.78;8.63;;;;;;;6.45;60.53;100611.77;1729382;81;20950;-68
2021/10/18 00:17:55;;;;;;;14.80;8.80;;;;;;;6.43;60.55;100607.55;1726975;81;20999;-68
2021/10/18 00:20:24;;;;;;;14.68;8.48;;;;;;;6.45;60.53;100600.42;1726671;83;20972;-68
2021/10/18 00:22:51;;;;;;;16.95;7.97;;;;;;;6.44;60.48;100604.83;1750721;81;21518;-68
2021/10/18 00:25:18;;;;;;;12.07;7.53;;;;;;;6.43;60.51;100596.58;1752243;81;20944;-68
2021/10/18 00:27:47;;;;;;;15.45;7.58;;;;;;;6.44;60.27;100593.02;1724210;81;21001;-68
2021/10/18 00:30:14;;;;;;;11.60;7.15;;;;;;;6.45;60.24;100592.08;1740612;81;21483;-68
2021/10/18 00:32:42;;;;;;;16.17;7.10;;;;;;;6.47;60.02;100594.64;1736235;82;21063;-69
2021/10/18 00:35:10;;;;;;;15.72;7.20;;;;;;;6.51;59.79;100595.67;1729897;81;20944;-68
2021/10/18 00:37:38;;;;;;;12.25;7.08;;;;;;;6.55;59.64;100586.66;1710232;81;20964;-68
2021/10/18 00:40:06;;;;;;;13.80;6.75;;;;;;;6.60;59.31;100587.72;1761355;81;21004;-68
2021/10/18 00:42:32;;;;;;;12.05;6.50;;;;;;;6.65;58.97;100583.03;1745318;81;21053;-68
2021/10/18 00:44:59;;;;;;;12.05;6.35;;;;;;;6.72;58.50;100587.45;1762072;80;22186;-69
2021/10/18 00:47:25;;;;;;;14.05;6.90;;;;;;;6.77;58.35;100579.69;1753776;81;21034;-68
2021/10/18 00:49:51;;;;;;;12.78;6.60;;;;;;;6.81;58.33;100577.23;1733497;81;21043;-68
2021/10/18 00:52:18;;;;;;;15.10;6.87;;;;;;;6.86;58.36;100579.61;1749051;79;20963;-68
2021/10/18 00:54:46;;;;;;;11.83;6.78;;;;;;;6.86;58.43;100584.39;1740517;82;20983;-68
2021/10/18 00:57:14;;;;;;;12.30;6.90;;;;;;;6.87;58.30;100587.86;1770264;80;22815;-69
2021/10/18 00:59:41;;;;;;;11.35;6.80;;;;;;;6.88;58.25;100582.50;1747877;81;21027;-67
2021/10/18 01:02:07;;;;;;;13.08;6.78;;;;;;;6.91;58.04;100585.41;1788797;80;20936;-68
2021/10/18 01:04:33;;;;;;;17.27;6.25;;;;;;;6.94;57.78;100582.58;1772928;81;21000;-68
2021/10/18 01:07:00;;;;;;;11.90;6.60;;;;;;;6.98;57.64;100584.58;1760728;81;20969;-67
2021/10/18 01:09:26;;;;;;;13.70;6.97;;;;;;;7.01;57.45;100584.38;1766044;81;22909;-69
2021/10/18 01:11:53;;;;;;;15.05;7.35;;;;;;;7.02;57.27;100585.59;1742642;82;21034;-68
2021/10/18 01:14:20;;;;;;;14.20;6.80;;;;;;;7.02;57.32;100589.53;1761710;80;20955;-69
2021/10/18 01:16:47;;;;;;;11.75;6.65;;;;;;;7.01;57.48;100573.40;1752129;81;21033;-69
2021/10/18 01:19:16;;;;;;;14.78;6.83;;;;;;;7.02;57.48;100572.93;1790991;80;21031;-69
2021/10/18 01:21:43;;;;;;;14.70;6.60;;;;;;;7.00;57.56;100584.00;1759304;81;21826;-69
2021/10/18 01:24:10;;;;;;;12.85;7.00;;;;;;;6.97;57.69;100581.58;1762547;81;20975;-69
2021/10/18 01:26:36;;;;;;;10.55;6.40;;;;;;;6.95;57.83;100582.11;1731235;81;21394;-68
2021/10/18 01:29:03;;;;;;;12.40;7.12;;;;;;;6.92;57.89;100580.52;1735323;81;21462;-68
2021/10/18 01:31:30;;;;;;;14.10;6.87;;;;;;;6.88;58.12;100577.72;1727926;81;21456;-68
2021/10/18 01:33:56;;;;;;;14.53;6.80;;;;;;;6.85;58.11;100576.58;1734053;81;22245;-69
2021/10/18 01:36:23;;;;;;;11.30;6.62;;;;;;;6.83;58.27;100576.67;1770390;81;21149;-67
2021/10/18 01:38:50;;;;;;;15.53;7.58;;;;;;;6.78;58.33;100568.72;1770756;80;20927;-68
2021/10/18 01:41:16;;;;;;;12.03;7.03;;;;;;;6.72;58.44;100577.80;1768336;80;21054;-68
2021/10/18 01:43:42;;;;;;;14.70;7.50;;;;;;;6.68;58.59;100582.86;1772643;80;20994;-68
2021/10/18 01:46:09;;;;;;;15.65;7.62;;;;;;;6.61;58.80;100580.22;1774697;80;21721;-68
2021/10/18 01:48:35;;;;;;;13.78;7.70;;;;;;;6.59;58.97;100584.73;1769179;80;21482;-68
2021/10/18 01:51:02;;;;;;;12.90;7.85;;;;;;;6.55;59.09;100580.58;1745270;80;21917;-69
2021/10/18 01:53:29;;;;;;;13.28;8.23;;;;;;;6.49;59.20;100580.96;1811086;78;21472;-68
2021/10/18 01:55:55;;;;;;;13.68;7.65;;;;;;;6.43;59.44;100586.09;1795198;78;20979;-68
2021/10/18 01:58:22;;;;;;;12.85;7.95;;;;;;;6.40;59.60;100584.12;1811986;78;21714;-69
2021/10/18 02:00:48;;;;;;;15.58;8.00;;;;;;;6.37;59.73;100582.97;1806311;78;21101;-68
2021/10/18 02:03:15;;;;;;;14.05;7.78;;;;;;;6.34;59.80;100584.47;1806178;78;21050;-69
2021/10/18 02:05:42;;;;;;;12.43;7.60;;;;;;;6.29;59.90;100580.35;1812435;78;21006;-68
2021/10/18 02:08:08;;;;;;;13.75;7.65;;;;;;;6.28;59.92;100584.38;1797978;78;20958;-68
2021/10/18 02:10:35;;;;;;;12.40;7.33;;;;;;;6.26;60.06;100582.28;1794427;78;22357;-68
2021/10/18 02:13:02;;;;;;;12.03;6.70;;;;;;;6.27;60.23;100585.28;1808860;78;20999;-68
2021/10/18 02:15:30;;;;;;;13.13;7.75;;;;;;;6.25;60.19;100582.75;1809683;78;20998;-69
2021/10/18 02:17:57;;;;;;;15.05;7.90;;;;;;;6.23;60.31;100579.85;1757138;80;21041;-69
2021/10/18 02:20:24;;;;;;;12.82;7.92;;;;;;;6.20;60.33;100580.88;1758884;81;21529;-69
2021/10/18 02:22:51;;;;;;;14.23;7.65;;;;;;;6.16;60.43;100579.35;1752431;81;21847;-69
2021/10/18 02:25:18;;;;;;;15.32;7.40;;;;;;;6.14;60.56;100581.23;1812123;78;20955;-67
2021/10/18 02:27:46;;;;;;;13.95;8.23;;;;;;;6.12;60.63;100577.85;1759133;81;20979;-68
2021/10/18 02:30:13;;;;;;;12.25;7.85;;;;;;;6.08;60.74;100584.22;1764504;80;21047;-69
2021/10/18 02:32:40;;;;;;;15.03;8.20;;;;;;;6.07;60.84;100579.87;1767500;81;20999;-69
2021/10/18 02:35:08;;;;;;;12.33;8.20;;;;;;;6.05;61.05;100580.91;1817426;78;21797;-68
2021/10/18 02:37:35;;;;;;;14.83;7.80;;;;;;;6.05;61.13;100581.75;1794203;78;21003;-69
2021/10/18 02:40:04;;;;;;;10.65;7.28;;;;;;;6.05;61.28;100581.75;1713544;81;21059;-68
2021/10/18 02:42:31;;;;;;;12.70;8.10;;;;;;;6.07;61.26;100581.66;1739963;81;21356;-68
2021/10/18 02:44:57;;;;;;;15.58;8.23;;;;;;;6.05;61.29;100576.98;1762784;81;20976;-68
2021/10/18 02:47:24;;;;;;;14.90;8.33;;;;;;;6.07;61.31;100575.10;1764995;81;22253;-68
2021/10/18 02:49:50;;;;;;;15.32;8.48;;;;;;;6.06;61.29;100579.97;1754012;81;21432;-69
2021/10/18 02:52:17;;;;;;;14.43;8.40;;;;;;;6.04;61.30;100572.20;1746911;81;20984;-68
2021/10/18 02:54:43;;;;;;;17.25;8.70;;;;;;;6.03;61.40;100580.53;1751858;81;21000;-68
2021/10/18 02:57:10;;;;;;;12.88;7.90;;;;;;;6.04;61.43;100577.45;1734832;81;20960;-68
2021/10/18 02:59:37;;;;;;;13.55;7.87;;;;;;;6.05;61.36;100575.20;1738723;81;22242;-69
2021/10/18 03:02:03;;;;;;;14.93;8.23;;;;;;;6.03;61.28;100576.60;1736763;81;21420;-68
2021/10/18 03:04:30;;;;;;;17.02;8.50;;;;;;;6.01;61.31;100570.61;1738455;81;20963;-69
2021/10/18 03:06:56;;;;;;;14.28;7.70;;;;;;;6.05;61.28;100571.27;1755828;81;21097;-68
2021/10/18 03:09:23;;;;;;;13.30;7.60;;;;;;;6.05;61.24;100574.35;1744333;81;21007;-69
2021/10/18 03:11:50;;;;;;;15.65;7.87;;;;;;;6.02;61.23;100569.67;1757483;81;22919;-68
2021/10/18 03:14:17;;;;;;;16.20;8.30;;;;;;;6.02;61.22;100576.70;1754344;81;21483;-68
2021/10/18 03:16:46;;;;;;;15.48;8.63;;;;;;;6.01;61.20;100569.77;1760843;81;21008;-68
2021/10/18 03:19:13;;;;;;;15.03;9.18;;;;;;;6.00;61.24;100575.48;1764773;81;21052;-69
2021/10/18 03:21:39;;;;;;;13.35;8.30;;;;;;;5.98;61.17;100565.98;1753933;81;20924;-67
2021/10/18 03:24:06;;;;;;;33.55;14.68;;;;;;;5.99;61.23;100569.02;1734885;81;22693;-67
2021/10/18 03:26:33;;;;;;;39.63;17.00;;;;;;;5.99;61.22;100572.95;1745446;81;21043;-68
2021/10/18 03:29:00;;;;;;;40.17;17.42;;;;;;;6.02;61.09;100570.14;1740001;81;21446;-68
2021/10/18 03:31:26;;;;;;;38.28;16.05;;;;;;;6.03;61.13;100571.83;1736258;81;21520;-68
2021/10/18 03:33:53;;;;;;;25.57;12.43;;;;;;;6.01;61.16;100571.92;1728100;82;21458;-68
2021/10/18 03:36:20;;;;;;;26.12;13.25;;;;;;;5.99;61.16;100569.02;1759236;81;21747;-67
2021/10/18 03:38:46;;;;;;;41.58;18.00;;;;;;;5.96;61.31;100573.94;1776922;80;21392;-67
2021/10/18 03:41:14;;;;;;;36.38;16.42;;;;;;;5.96;61.40;100571.32;1785299;80;20977;-68
2021/10/18 03:43:40;;;;;;;29.18;13.83;;;;;;;5.98;61.43;100564.23;1781328;80;21001;-68
2021/10/18 03:46:06;;;;;;;26.52;11.85;;;;;;;5.96;61.35;100562.14;1763271;80;20945;-68
2021/10/18 03:48:33;;;;;;;19.23;10.80;;;;;;;5.96;61.46;100559.99;1759675;80;21846;-68
2021/10/18 03:51:00;;;;;;;21.30;11.50;;;;;;;5.96;61.51;100562.61;1773643;80;20988;-67
2021/10/18 03:53:26;;;;;;;17.80;10.53;;;;;;;5.94;61.63;100565.80;1765289;80;21009;-68
2021/10/18 03:55:53;;;;;;;24.98;11.40;;;;;;;5.95;61.68;100566.17;1776341;80;21048;-68
2021/10/18 03:58:19;;;;;;;22.58;12.68;;;;;;;5.95;61.65;100555.69;1784567;80;20937;-68
2021/10/18 04:00:46;;;;;;;28.92;15.13;;;;;;;5.94;61.63;100557.93;1775977;80;21424;-68
2021/10/18 04:03:13;;;;;;;26.75;12.78;;;;;;;5.88;61.66;100559.08;1785343;80;21467;-70
2021/10/18 04:05:39;;;;;;;25.60;12.93;;;;;;;5.86;61.79;100560.95;1756084;80;20944;-68
2021/10/18 04:08:06;;;;;;;24.02;12.60;;;;;;;5.85;61.83;100557.95;1776527;80;21062;-69
2021/10/18 04:10:32;;;;;;;22.40;11.20;;;;;;;5.87;61.99;100556.55;1783162;80;21033;-68
2021/10/18 04:13:03;;;;;;;22.07;11.40;;;;;;;5.89;62.00;100563.42;1771561;80;21838;-68
2021/10/18 04:15:29;;;;;;;22.73;12.78;;;;;;;5.90;61.97;100556.40;1772456;80;20945;-69
2021/10/18 04:17:56;;;;;;;23.77;16.25;;;;;;;5.90;61.94;100562.95;1766742;80;21004;-71
2021/10/18 04:20:22;;;;;;;26.00;18.30;;;;;;;5.89;61.92;100558.17;1760542;80;21040;-70
2021/10/18 04:22:49;;;;;;;29.85;21.27;;;;;;;5.91;61.93;100560.27;1779852;80;20941;-68
2021/10/18 04:25:16;;;;;;;31.48;19.02;;;;;;;5.92;61.95;100565.05;1767564;80;22447;-72
2021/10/18 04:27:43;;;;;;;30.75;17.98;;;;;;;5.92;61.92;100562.42;1754347;80;21000;-70
2021/10/18 04:30:10;;;;;;;29.18;20.15;;;;;;;5.93;62.05;100565.42;1767195;80;21000;-70
2021/10/18 04:32:37;;;;;;;28.07;17.85;;;;;;;5.94;61.98;100569.73;1758683;80;20996;-69
2021/10/18 04:35:05;;;;;;;28.95;17.73;;;;;;;5.95;61.90;100570.11;1785029;80;21004;-68
2021/10/18 04:37:32;;;;;;;27.50;16.32;;;;;;;5.93;61.96;100568.04;1763550;80;22572;-69
2021/10/18 04:39:58;;;;;;;24.50;14.13;;;;;;;5.95;61.99;100567.02;1765813;80;20933;-68
2021/10/18 04:42:25;;;;;;;20.68;12.15;;;;;;;5.94;61.80;100564.02;1738083;81;21003;-68
2021/10/18 04:44:51;;;;;;;20.48;10.53;;;;;;;5.94;61.84;100569.27;1739300;81;21006;-68
2021/10/18 04:47:18;;;;;;;19.05;10.40;;;;;;;5.98;61.83;100567.30;1740289;81;20944;-69
2021/10/18 04:49:44;;;;;;;16.62;10.20;;;;;;;5.99;61.71;100565.92;1742845;81;21826;-68
2021/10/18 04:52:10;;;;;;;17.48;9.63;;;;;;;6.01;61.66;100573.23;1738311;81;21015;-67
2021/10/18 04:54:37;;;;;;;15.88;8.88;;;;;;;6.02;61.63;100566.20;1735196;81;21101;-67
2021/10/18 04:57:04;;;;;;;13.90;9.08;;;;;;;6.04;61.61;100576.13;1753574;81;21003;-67
2021/10/18 04:59:31;;;;;;;18.10;10.00;;;;;;;6.06;61.52;100583.44;1740180;81;21030;-67
2021/10/18 05:01:57;;;;;;;15.78;9.60;;;;;;;6.07;61.46;100584.28;1747576;81;21850;-67
2021/10/18 05:04:23;;;;;;;15.40;8.88;;;;;;;6.10;61.42;100578.41;1754169;81;20999;-70
2021/10/18 05:06:50;;;;;;;19.60;9.93;;;;;;;6.13;61.27;100581.32;1746014;81;21101;-68
2021/10/18 05:09:17;;;;;;;20.23;10.03;;;;;;;6.12;61.20;100580.95;1753396;81;20964;-66
2021/10/18 05:11:43;;;;;;;15.68;9.28;;;;;;;6.12;61.29;100589.66;1735676;81;21059;-67
2021/10/18 05:14:10;;;;;;;18.25;9.65;;;;;;;6.17;61.23;100585.44;1734940;82;22407;-67
2021/10/18 05:16:39;;;;;;;15.58;9.30;;;;;;;6.20;61.15;100592.69;1764013;81;20948;-68
2021/10/18 05:19:06;;;;;;;17.45;10.05;;;;;;;6.23;61.03;100592.97;1750598;81;20999;-66
2021/10/18 05:21:33;;;;;;;18.17;9.85;;;;;;;6.26;61.07;100598.03;1734844;82;20948;-68
2021/10/18 05:24:00;;;;;;;15.32;9.23;;;;;;;6.30;60.88;100601.71;1735000;82;20959;-68
2021/10/18 05:26:26;;;;;;;15.13;9.28;;;;;;;6.32;60.73;100598.99;1741063;81;21760;-68
2021/10/18 05:28:53;;;;;;;18.37;9.93;;;;;;;6.33;60.63;100599.37;1763010;81;21389;-68
2021/10/18 05:31:19;;;;;;;16.52;8.98;;;;;;;6.34;60.70;100605.45;1763903;81;21008;-67
2021/10/18 05:33:46;;;;;;;80.50;39.53;;;;;;;6.37;60.81;100603.95;1733722;81;20985;-67
2021/10/18 05:36:13;;;;;;;37.38;22.58;;;;;;;6.43;60.84;100600.98;1733233;82;21056;-67
2021/10/18 05:38:40;;;;;;;96.45;50.67;;;;;;;6.48;60.53;100605.05;1734462;81;21848;-67
2021/10/18 05:41:07;;;;;;;34.70;16.15;;;;;;;6.52;60.35;100602.60;1738825;81;20979;-68
2021/10/18 05:43:34;;;;;;;17.85;10.68;;;;;;;6.59;60.26;100607.03;1739241;81;21438;-69
2021/10/18 05:46:01;;;;;;;16.48;9.18;;;;;;;6.61;60.01;100606.47;1738789;81;20974;-67
2021/10/18 05:48:27;;;;;;;17.02;8.83;;;;;;;6.65;59.87;100613.68;1716076;82;21439;-67
2021/10/18 05:50:54;;;;;;;19.37;9.48;;;;;;;6.65;59.71;100619.77;1718197;82;21455;-67
2021/10/18 05:53:20;;;;;;;17.55;9.35;;;;;;;6.66;59.65;100621.48;1745907;81;21348;-68
2021/10/18 05:55:47;;;;;;;20.37;9.95;;;;;;;6.67;59.63;100619.70;1755909;81;21362;-68
2021/10/18 05:58:13;;;;;;;16.30;9.35;;;;;;;6.68;59.52;100622.70;1803275;79;21469;-68
2021/10/18 06:00:42;;;;;;;15.65;9.68;;;;;;;6.69;59.32;100621.77;1815854;79;21447;-67
2021/10/18 06:03:09;;;;;;;16.32;8.43;;;;;;;6.70;59.38;100622.98;1790188;79;22470;-67
2021/10/18 06:05:45;;;;;;;14.00;8.90;;;;;;;6.72;59.12;100627.67;1787437;79;21061;-68
2021/10/18 06:08:13;;;;;;;15.78;9.00;;;;;;;6.72;59.07;100625.05;1815955;79;21799;-68
2021/10/18 06:10:41;;;;;;;15.10;9.30;;;;;;;6.76;59.05;100625.73;1792207;79;20971;-69
2021/10/18 06:13:08;;;;;;;17.90;9.75;;;;;;;6.80;59.11;100630.69;1783874;80;20942;-70
2021/10/18 06:15:35;;;;;;;21.00;9.75;;;;;;;6.84;59.02;100637.43;1762950;79;22184;-70
2021/10/18 06:18:13;;;;;;;19.32;8.98;;;;;;;6.88;58.98;100635.02;1800864;79;21401;-71
2021/10/18 06:20:42;;;;;;;18.85;9.00;;;;;;;6.95;58.94;100639.88;1769440;81;20992;-69
2021/10/18 06:23:09;;;;;;;18.50;9.70;;;;;;;6.99;58.71;100646.66;1759278;79;21461;-69
2021/10/18 06:25:36;;;;;;;18.37;9.20;;;;;;;7.05;58.63;100639.73;1738847;82;21059;-70
2021/10/18 06:28:03;;;;;;;17.17;8.80;;;;;;;7.10;58.54;100642.44;1739068;81;21800;-68
2021/10/18 06:30:30;;;;;;;14.28;8.58;;;;;;;7.15;58.47;100645.65;1738747;82;21426;-70
2021/10/18 06:32:56;;;;;;;14.28;8.55;;;;;;;7.23;58.42;100643.84;1738865;81;21447;-69
2021/10/18 06:35:24;;;;;;;15.32;8.20;;;;;;;7.33;58.18;100641.02;1738593;82;21003;-69
2021/10/18 06:37:50;;;;;;;17.50;9.40;;;;;;;7.42;58.12;100636.98;1739359;82;20960;-68
2021/10/18 06:40:17;;;;;;;17.90;8.95;;;;;;;7.51;57.82;100642.14;1739065;81;21844;-69
2021/10/18 06:42:44;;;;;;;16.20;7.37;;;;;;;7.59;57.89;100642.04;1754209;81;21026;-69
2021/10/18 06:45:10;;;;;;;16.77;8.53;;;;;;;7.66;57.29;100638.56;1735519;82;20938;-68
2021/10/18 06:47:38;;;;;;;17.02;8.20;;;;;;;7.70;57.20;100633.00;1754286;81;21445;-68
2021/10/18 06:50:05;;;;;;;15.40;8.08;;;;;;;7.77;57.08;100633.94;1754230;80;20991;-68
2021/10/18 06:52:35;;;;;;;14.05;8.10;;;;;;;7.80;56.96;100634.58;1735400;81;21850;-68
2021/10/18 06:55:04;;;;;;;13.18;7.10;;;;;;;7.82;56.72;100637.98;1747241;81;21466;-70
2021/10/18 06:57:32;;;;;;;17.23;8.05;;;;;;;7.84;56.68;100634.77;1739123;81;21429;-68
2021/10/18 06:59:58;;;;;;;12.80;7.20;;;;;;;7.84;56.40;100636.09;1735939;81;20986;-68
2021/10/18 07:02:26;;;;;;;15.08;7.85;;;;;;;7.86;56.63;100633.36;1779909;80;20991;-68
2021/10/18 07:04:53;;;;;;;14.03;8.28;;;;;;;7.89;56.54;100639.25;1817436;78;21896;-68
2021/10/18 07:07:21;;;;;;;15.30;8.15;;;;;;;7.93;56.59;100642.08;1821096;78;21076;-68
2021/10/18 07:09:48;;;;;;;12.55;7.67;;;;;;;7.96;56.33;100643.19;1817290;78;21117;-68
2021/10/18 07:12:14;;;;;;;15.98;7.42;;;;;;;8.02;56.32;100642.80;1788814;80;21002;-68
2021/10/18 07:14:41;;;;;;;13.40;7.65;;;;;;;8.07;55.80;100649.54;1791949;78;21454;-69
2021/10/18 07:17:07;;;;;;;12.80;7.50;;;;;;;8.11;55.64;100653.20;1789115;78;22632;-69
2021/10/18 07:19:35;;;;;;;13.18;7.47;;;;;;;8.18;55.78;100644.42;1810594;78;20971;-69
2021/10/18 07:22:03;;;;;;;12.47;7.47;;;;;;;8.26;55.31;100646.93;1821133;78;20999;-68
2021/10/18 07:24:30;;;;;;;16.02;7.22;;;;;;;8.33;55.14;100646.06;1820588;77;20967;-68
2021/10/18 07:26:56;;;;;;;10.40;6.78;;;;;;;8.39;54.76;100649.63;1821556;77;20995;-68
2021/10/18 07:29:23;;;;;;;10.18;6.28;;;;;;;8.44;54.67;100650.65;1821182;78;21787;-70
2021/10/18 07:31:49;;;;;;;13.48;7.00;;;;;;;8.49;54.70;100649.41;1801142;78;20944;-71
2021/10/18 07:34:18;;;;;;;11.50;6.25;;;;;;;8.53;54.32;100646.94;1810405;78;20995;-71
2021/10/18 07:36:49;;;;;;;9.45;6.47;;;;;;;8.57;53.92;100639.19;1818828;78;20991;-71
2021/10/18 07:39:15;;;;;;;12.15;6.35;;;;;;;8.62;54.01;100648.59;1806627;78;21046;-70
2021/10/18 07:41:42;;;;;;;14.20;6.70;;;;;;;8.65;53.77;100641.80;1721665;83;21818;-71
2021/10/18 07:44:09;;;;;;;9.90;5.85;;;;;;;8.70;53.61;100640.55;1726401;83;20998;-70
2021/10/18 07:46:35;;;;;;;14.87;5.92;;;;;;;8.78;53.59;100641.33;1753155;81;20988;-70
2021/10/18 07:49:02;;;;;;;14.75;6.45;;;;;;;8.86;53.28;100635.06;1739733;81;20977;-72
2021/10/18 07:51:29;;;;;;;13.10;6.50;;;;;;;8.94;53.45;100634.55;1733772;81;20999;-69
2021/10/18 07:53:56;;;;;;;12.20;6.17;;;;;;;9.03;53.15;100629.97;1726753;81;22187;-70
2021/10/18 07:56:22;;;;;;;12.53;6.22;;;;;;;9.11;52.77;100627.66;1734291;81;21044;-71
2021/10/18 07:58:48;;;;;;;12.18;5.72;;;;;;;9.13;52.24;100621.32;1734824;81;21091;-70
2021/10/18 08:01:15;;;;;;;14.63;6.15;;;;;;;9.15;51.90;100618.09;1754687;80;20999;-70
2021/10/18 08:03:41;;;;;;;10.35;6.28;;;;;;;9.20;52.12;100619.11;1746740;81;21009;-69
2021/10/18 08:06:08;;;;;;;10.63;6.22;;;;;;;9.30;52.41;100621.47;1751833;81;21818;-71
2021/10/18 08:08:43;;;;;;;9.63;5.62;;;;;;;9.41;51.65;100636.05;1726516;83;21000;-69
2021/10/18 08:11:04;;;;;;;14.28;7.25;;;;;;;9.48;51.20;100625.93;1757756;81;21000;-70
2021/10/18 08:13:30;;;;;;;11.57;6.80;;;;;;;9.52;50.93;100627.86;1765485;81;20983;-70
2021/10/18 08:15:56;;;;;;;26.97;9.80;;;;;;;9.59;51.15;100622.05;1756964;81;20992;-74
2021/10/18 08:18:23;;;;;;;10.95;6.03;;;;;;;9.67;51.14;100618.88;1745228;81;22296;-70
2021/10/18 08:20:49;;;;;;;12.93;5.83;;;;;;;9.72;50.82;100620.20;1734774;82;20952;-71
2021/10/18 08:23:16;;;;;;;11.28;6.22;;;;;;;9.75;50.65;100616.53;1751222;81;20988;-70
2021/10/18 08:25:43;;;;;;;11.50;5.83;;;;;;;9.78;51.14;100616.30;1755775;80;21050;-70
2021/10/18 08:28:09;;;;;;;11.03;5.58;;;;;;;9.86;51.19;100615.75;1746885;81;20999;-70
2021/10/18 08:30:36;;;;;;;11.55;5.10;;;;;;;9.94;51.14;100614.69;1735335;81;21831;-71
2021/10/18 08:33:03;;;;;;;9.83;5.53;;;;;;;9.98;50.06;100614.38;1734899;82;21031;-70
2021/10/18 08:35:29;;;;;;;11.05;5.60;;;;;;;9.99;50.04;100609.45;1735730;81;20951;-70
2021/10/18 08:40:59;;;;;;;11.88;5.85;;;;;;;10.00;49.64;100612.93;1763962;80;21019;-71
2021/10/18 08:45:52;;;;;;;11.30;5.90;;;;;;;10.03;50.02;100605.63;1760306;81;20984;-71
2021/10/18 08:48:19;;;;;;;9.13;5.33;;;;;;;10.07;49.92;100595.70;1765191;81;20983;-70
2021/10/18 08:50:47;;;;;;;9.55;5.10;;;;;;;10.13;50.00;100595.23;1765204;81;20975;-71
2021/10/18 08:53:14;;;;;;;9.40;5.42;;;;;;;10.22;49.93;100597.22;1765258;81;21474;-69
2021/10/18 08:55:41;;;;;;;8.70;5.12;;;;;;;10.30;50.19;100585.61;1754415;81;22284;-72
2021/10/18 08:58:08;;;;;;;13.58;5.55;;;;;;;10.48;50.18;100603.20;1765158;81;21030;-71
2021/10/18 09:00:48;;;;;;;9.90;5.40;;;;;;;10.62;49.61;100586.81;1765170;81;21039;-70
2021/10/18 09:03:32;;;;;;;10.10;5.30;;;;;;;10.70;49.30;100587.03;1765240;81;21043;-71
2021/10/18 09:06:12;;;;;;;8.48;5.33;;;;;;;10.77;49.12;100591.74;1765596;81;20992;-72
2021/10/18 09:08:49;;;;;;;14.63;5.92;;;;;;;10.81;49.08;100585.28;1765189;81;22240;-71
2021/10/18 09:11:26;;;;;;;10.60;5.95;;;;;;;10.85;49.05;100589.36;1765605;81;21188;-70
2021/10/18 09:13:57;;;;;;;16.20;6.62;;;;;;;10.85;49.16;100581.43;1745321;81;21059;-71
2021/10/18 09:16:43;;;;;;;10.20;5.58;;;;;;;10.90;48.85;100581.06;1759717;81;21050;-70
2021/10/18 09:19:26;;;;;;;8.43;4.95;;;;;;;10.93;49.22;100584.81;1751542;80;20860;-70
2021/10/18 09:21:58;;;;;;;11.70;5.37;;;;;;;11.01;49.00;100587.70;1739069;81;21833;-69
2021/10/18 09:24:36;;;;;;;11.45;5.22;;;;;;;11.08;48.88;100586.72;1735731;81;20987;-70
2021/10/18 09:27:09;;;;;;;91.32;13.43;;;;;;;11.14;49.08;100580.97;1737326;81;21051;-70
2021/10/18 09:29:46;;;;;;;14.20;6.12;;;;;;;11.21;49.14;100574.24;1746493;81;21506;-72
2021/10/18 09:32:28;;;;;;;12.15;5.62;;;;;;;11.24;49.05;100575.31;1743167;81;21110;-74
2021/10/18 09:35:17;;;;;;;11.88;5.90;;;;;;;11.26;49.16;100573.38;1745172;81;21753;-71
2021/10/18 09:37:42;;;;;;;11.18;6.47;;;;;;;11.25;48.96;100577.47;1732699;81;21069;-71
2021/10/18 09:40:09;;;;;;;43.45;10.08;;;;;;;11.22;48.82;100575.92;1733741;81;20987;-70
2021/10/18 09:42:36;;;;;;;10.65;5.80;;;;;;;11.17;48.64;100576.27;1701841;83;21558;-69
2021/10/18 10:54:05;;;;;;;12.30;6.33;;;;;;;10.54;51.35;100531.92;1765486;81;21023;-68
2021/10/18 10:56:49;;;;;;;20.80;6.65;;;;;;;10.54;51.47;100534.08;1745436;81;21078;-68
2021/10/18 10:59:21;;;;;;;19.70;6.95;;;;;;;10.55;51.62;100528.31;1735367;82;22664;-69
2021/10/18 11:01:53;;;;;;;10.65;6.30;;;;;;;10.54;51.61;100531.44;1735275;82;21293;-69
2021/10/18 11:04:37;;;;;;;10.50;6.22;;;;;;;10.53;51.71;100532.41;1735310;82;20984;-69
2021/10/18 11:07:34;;;;;;;10.53;6.45;;;;;;;10.52;51.72;100533.36;1788666;79;20976;-69
2021/10/18 11:10:02;;;;;;;9.93;5.70;;;;;;;10.52;51.81;100529.41;1756004;81;21413;-69
2021/10/18 11:12:37;;;;;;;11.15;6.75;;;;;;;10.56;51.92;100532.64;1759444;81;21826;-69
2021/10/18 11:15:07;;;;;;;41.48;9.90;;;;;;;10.54;51.64;100526.64;1765712;81;20943;-69
2021/10/18 11:17:41;;;;;;;10.78;6.40;;;;;;;10.55;52.13;100522.55;1765232;81;21046;-69
2021/10/18 11:20:13;;;;;;;11.78;6.22;;;;;;;10.57;52.14;100522.43;1762897;81;21819;-69
2021/10/18 11:22:46;;;;;;;55.12;10.70;;;;;;;10.62;52.20;100516.33;1761733;81;20947;-68
2021/10/18 11:25:19;;;;;;;10.88;6.00;;;;;;;10.69;52.21;100524.60;1735184;82;22613;-69
2021/10/18 11:27:52;;;;;;;10.20;5.92;;;;;;;10.74;51.83;100514.05;1735008;82;20980;-69
2021/10/18 11:30:20;;;;;;;9.85;5.42;;;;;;;10.77;51.63;100510.32;1760371;81;20955;-68
2021/10/18 11:33:07;;;;;;;10.75;6.17;;;;;;;10.78;51.27;100512.00;1765318;81;20988;-68
2021/10/18 11:35:34;;;;;;;11.73;5.15;;;;;;;10.76;51.11;100509.48;1765310;81;21026;-68
2021/10/18 11:38:09;;;;;;;9.28;5.05;;;;;;;10.77;51.34;100503.72;1765232;81;21895;-68
2021/10/18 11:40:50;;;;;;;9.43;5.40;;;;;;;10.82;51.35;100513.45;1764311;80;20947;-68
2021/10/18 11:43:22;;;;;;;9.48;5.83;;;;;;;10.87;50.80;100505.52;1765457;81;20976;-68
2021/10/18 11:45:53;;;;;;;12.78;6.10;;;;;;;10.93;50.80;100498.92;1764124;81;20964;-68
2021/10/18 11:48:26;;;;;;;11.20;5.85;;;;;;;11.03;50.95;100505.16;1764691;81;20944;-69
2021/10/18 11:50:54;;;;;;;;;;;;;;;11.10;50.84;100494.95;1735028;81;22634;-68
2021/10/18 11:53:23;;;;;;;8.45;5.20;;;;;;;11.20;50.73;100500.34;1765188;81;21305;-69
2021/10/18 11:55:57;;;;;;;12.88;6.42;;;;;;;11.23;50.14;100500.92;1732451;81;21343;-69
2021/10/18 11:58:32;;;;;;;13.48;6.22;;;;;;;11.25;49.98;100503.44;1765177;81;21008;-69
2021/10/18 12:01:04;;;;;;;11.95;6.85;;;;;;;11.27;50.39;100501.51;1760423;79;21514;-69
2021/10/18 12:03:32;;;;;;;16.57;6.78;;;;;;;11.29;50.31;100499.13;1748486;81;22489;-67
2021/10/18 12:06:01;;;;;;;12.70;6.97;;;;;;;11.30;49.89;100505.25;1735198;82;20951;-68
2021/10/18 12:08:31;;;;;;;13.85;6.58;;;;;;;11.24;49.58;100503.09;1757888;81;21395;-69
2021/10/18 12:11:00;;;;;;;99.95;19.50;;;;;;;11.22;49.31;100498.41;1764924;81;21396;-69
2021/10/18 12:13:34;;;;;;;17.32;7.22;;;;;;;11.21;49.68;100498.05;1765444;81;21493;-70
2021/10/18 12:16:14;;;;;;;12.00;7.35;;;;;;;11.24;49.85;100495.99;1761296;81;22687;-68
2021/10/18 12:18:51;;;;;;;10.88;7.28;;;;;;;11.26;49.43;100501.16;1763624;81;20991;-69
2021/10/18 12:21:36;;;;;;;11.78;7.15;;;;;;;11.24;49.23;100502.60;1764305;81;20988;-69
2021/10/18 12:24:07;;;;;;;11.10;6.95;;;;;;;11.20;48.89;100504.30;1765289;81;21027;-69
2021/10/18 12:26:47;;;;;;;12.70;6.75;;;;;;;11.12;49.12;100503.11;1766201;81;21059;-68
2021/10/18 12:29:17;;;;;;;15.03;7.90;;;;;;;11.09;49.42;100511.74;1766128;79;21828;-69
2021/10/18 12:31:56;;;;;;;11.78;8.05;;;;;;;11.08;49.65;100506.09;1765995;81;21036;-69
2021/10/18 12:34:26;;;;;;;14.78;7.65;;;;;;;11.07;49.56;100510.55;1766017;81;21527;-68
2021/10/18 12:37:05;;;;;;;12.37;7.97;;;;;;;11.06;49.58;100504.06;1764767;81;21665;-68
2021/10/18 12:39:52;;;;;;;15.03;8.85;;;;;;;11.06;49.77;100510.67;1764128;81;21007;-69
2021/10/18 12:42:27;;;;;;;14.33;8.75;;;;;;;11.02;49.58;100507.44;1757542;80;21905;-70